Time;durP1;ratioP1;P1;durP2;ratioP2;P2;SDS_P1;SDS_P2;PMS_P1;PMS_P2;Temp;Humidity;BMP_temperature;BMP_pressure;BME280_temperature;BME280_humidity;BME280_pressure;Samples;Min_cycle;Max_cycle;Signal;HPM_P1;HPM_P2
2022/10/29 00:06:48;;;;;;;11.07;6.73;;;;;15.40;99629.00;;;;16628668;28;20221;-47
2022/10/29 00:14:52;;;;;;;12.00;7.33;;;;;15.30;99626.00;;;;16629824;28;20227;-46
2022/10/29 00:22:54;;;;;;;9.73;6.80;;;;;15.60;99625.00;;;;16616135;28;20256;-45
2022/10/29 00:31:01;;;;;;;12.47;8.10;;;;;15.70;99616.00;;;;16614742;28;20207;-46
2022/10/29 00:39:04;;;;;;;12.07;9.00;;;;;16.20;99618.00;;;;16606064;28;20307;-46
2022/10/29 00:47:18;;;;;;;9.87;7.20;;;;;16.30;99624.00;;;;16648511;28;20224;-46
2022/10/29 00:55:21;;;;;;;11.70;6.83;;;;;15.60;99606.00;;;;16631834;28;20229;-47
2022/10/29 01:03:25;;;;;;;12.53;8.23;;;;;15.60;99612.00;;;;16619277;28;20570;-47
2022/10/29 01:11:50;;;;;;;16.33;7.77;;;;;15.30;99610.00;;;;16636187;28;20210;-46
2022/10/29 01:20:22;;;;;;;10.73;7.13;;;;;15.30;99611.00;;;;16629830;28;20303;-46
2022/10/29 01:28:34;;;;;;;12.87;6.97;;;;;16.40;99603.00;;;;16618592;28;20219;-46
2022/10/29 01:36:41;;;;;;;11.60;7.90;;;;;16.50;99584.00;;;;16608206;28;20593;-46
2022/10/29 01:44:48;;;;;;;9.63;8.50;;;;;16.50;99577.00;;;;16623788;28;20864;-46
2022/10/29 01:52:52;;;;;;;17.23;8.10;;;;;16.50;99584.00;;;;16625140;28;20219;-46
2022/10/29 02:01:01;;;;;;;13.17;8.23;;;;;16.60;99575.00;;;;16614019;28;20225;-46
2022/10/29 02:09:11;;;;;;;12.40;9.13;;;;;16.40;99571.00;;;;16597307;28;20302;-46
2022/10/29 02:17:13;;;;;;;12.37;7.80;;;;;16.40;99568.00;;;;16632716;28;20241;-47
2022/10/29 02:25:17;;;;;;;13.30;7.73;;;;;16.60;99545.00;;;;16615595;28;20305;-46
2022/10/29 02:33:20;;;;;;;9.73;7.97;;;;;16.60;99539.00;;;;16600004;28;20215;-46
2022/10/29 02:41:24;;;;;;;7.63;6.80;;;;;15.60;99544.00;;;;16616992;28;20218;-46
2022/10/29 02:49:26;;;;;;;8.17;6.80;;;;;16.40;99533.00;;;;16631442;28;20246;-47
2022/10/29 02:57:30;;;;;;;14.33;9.33;;;;;16.20;99533.00;;;;16618204;23;20314;-48
2022/10/29 03:05:32;;;;;;;13.70;7.80;;;;;16.00;99527.00;;;;16512181;28;20703;-48
2022/10/29 03:13:36;;;;;;;10.57;7.60;;;;;16.10;99519.00;;;;16521285;28;20220;-48
2022/10/29 03:21:39;;;;;;;11.17;8.53;;;;;16.30;99519.00;;;;16519454;28;20774;-49
2022/10/29 03:29:42;;;;;;;15.90;8.47;;;;;16.20;99529.00;;;;16524601;28;20598;-49
2022/10/29 03:37:45;;;;;;;14.63;8.80;;;;;16.30;99537.00;;;;16514846;28;20278;-49
2022/10/29 03:45:52;;;;;;;12.90;8.30;;;;;16.20;99526.00;;;;16520709;28;20594;-48
2022/10/29 03:53:54;;;;;;;8.30;7.23;;;;;16.30;99531.00;;;;16522499;28;20208;-49
2022/10/29 04:01:58;;;;;;;10.53;7.93;;;;;16.20;99530.00;;;;16514201;28;20327;-49
2022/10/29 04:10:00;;;;;;;14.83;7.90;;;;;16.20;99517.00;;;;16508422;28;20222;-48
2022/10/29 04:18:04;;;;;;;8.70;6.70;;;;;16.30;99536.00;;;;16503592;28;20690;-48
2022/10/29 04:26:07;;;;;;;8.47;7.57;;;;;16.30;99530.00;;;;16502157;28;20719;-48
2022/10/29 04:34:10;;;;;;;9.37;7.10;;;;;16.20;99535.00;;;;16525764;28;20695;-49
2022/10/29 04:42:13;;;;;;;10.53;7.20;;;;;16.20;99530.00;;;;16521632;28;20309;-49
2022/10/29 04:50:17;;;;;;;8.90;7.10;;;;;16.60;99525.00;;;;16502515;28;20223;-48
2022/10/29 04:58:20;;;;;;;11.43;7.97;;;;;16.50;99523.00;;;;16518259;28;20231;-49
2022/10/29 05:06:24;;;;;;;10.17;7.00;;;;;16.00;99536.00;;;;16518915;28;20623;-49
2022/10/29 05:14:26;;;;;;;11.03;6.90;;;;;15.40;99537.00;;;;16515586;28;20206;-48
2022/10/29 05:22:30;;;;;;;8.53;7.00;;;;;15.50;99532.00;;;;16510840;28;20705;-48
2022/10/29 05:30:33;;;;;;;11.43;8.40;;;;;14.70;99534.00;;;;16517923;28;20549;-47
2022/10/29 05:38:37;;;;;;;9.90;7.33;;;;;14.60;99540.00;;;;16497776;28;20228;-48
2022/10/29 05:46:39;;;;;;;10.33;8.07;;;;;14.90;99534.00;;;;16479702;28;20623;-48
2022/10/29 05:54:43;;;;;;;15.80;7.00;;;;;14.50;99529.00;;;;16506669;28;20212;-48
2022/10/29 06:02:46;;;;;;;9.47;8.10;;;;;14.70;99527.00;;;;16523948;28;20227;-49
2022/10/29 06:10:49;;;;;;;14.57;8.80;;;;;14.30;99542.00;;;;16519744;28;20223;-50
2022/10/29 06:18:52;;;;;;;10.03;7.33;;;;;14.40;99541.00;;;;16515576;28;20837;-48
2022/10/29 06:26:56;;;;;;;14.53;9.30;;;;;14.60;99545.00;;;;16514221;28;20585;-49
2022/10/29 06:34:58;;;;;;;11.40;7.93;;;;;14.90;99551.00;;;;16508639;28;20200;-48
2022/10/29 06:43:03;;;;;;;10.33;8.30;;;;;14.30;99557.00;;;;16515595;28;20220;-48
2022/10/29 06:51:06;;;;;;;11.40;8.30;;;;;14.30;99552.00;;;;16504391;28;20769;-49
2022/10/29 06:59:09;;;;;;;10.93;8.33;;;;;14.60;99546.00;;;;16501575;28;20233;-48
2022/10/29 07:07:12;;;;;;;12.07;8.90;;;;;14.60;99556.00;;;;16525375;28;20478;-49
2022/10/29 07:15:16;;;;;;;14.50;9.10;;;;;15.50;99550.00;;;;16504410;28;20207;-49
2022/10/29 07:23:18;;;;;;;11.37;8.63;;;;;16.00;99551.00;;;;16521447;28;20234;-48
2022/10/29 07:31:22;;;;;;;15.90;8.30;;;;;16.20;99553.00;;;;16520914;28;20362;-49
2022/10/29 07:39:25;;;;;;;9.97;7.30;;;;;15.90;99556.00;;;;16520180;28;20714;-49
2022/10/29 07:47:29;;;;;;;11.53;7.53;;;;;15.50;99565.00;;;;16522536;28;20227;-49
2022/10/29 07:55:53;;;;;;;12.23;7.80;;;;;17.00;99556.00;;;;16496668;28;20664;-48
2022/10/29 08:03:56;;;;;;;15.07;7.53;;;;;17.00;99553.00;;;;16503529;28;20218;-49
2022/10/29 08:11:59;;;;;;;15.20;8.90;;;;;17.90;99544.00;;;;16508126;28;20212;-49
2022/10/29 08:20:03;;;;;;;11.47;7.60;;;;;18.30;99543.00;;;;16516724;28;20850;-49
2022/10/29 08:28:05;;;;;;;14.57;7.30;;;;;19.10;99529.00;;;;16511705;28;20235;-48
2022/10/29 08:36:09;;;;;;;11.73;7.27;;;;;19.20;99530.00;;;;16520436;28;20267;-48
2022/10/29 08:44:43;;;;;;;10.87;6.97;;;;;20.10;99525.00;;;;16519899;28;20226;-49
2022/10/29 08:52:47;;;;;;;14.97;7.53;;;;;19.50;99531.00;;;;16519772;28;20219;-48
2022/10/29 09:00:52;;;;;;;12.93;7.70;;;;;19.80;99521.00;;;;16516223;28;20624;-49
2022/10/29 09:09:09;;;;;;;13.37;7.80;;;;;19.90;99518.00;;;;16487192;28;20223;-49
2022/10/29 09:17:20;;;;;;;12.00;7.90;;;;;20.40;99523.00;;;;16517482;28;20233;-48
2022/10/29 09:25:30;;;;;;;10.57;6.37;;;;;20.80;99508.00;;;;16518280;28;20230;-49
2022/10/29 09:33:32;;;;;;;9.40;6.97;;;;;21.10;99509.00;;;;16478517;28;20219;-49
2022/10/29 09:41:37;;;;;;;15.63;6.27;;;;;21.40;99503.00;;;;16514173;28;20223;-49
2022/10/29 09:49:49;;;;;;;9.67;6.10;;;;;22.20;99495.00;;;;16509143;28;20246;-47
2022/10/29 09:57:53;;;;;;;10.80;6.33;;;;;22.50;99491.00;;;;16503170;28;20232;-48
2022/10/29 10:06:01;;;;;;;13.40;9.77;;;;;23.40;99493.00;;;;16486710;28;20216;-48
2022/10/29 10:14:08;;;;;;;16.53;7.17;;;;;23.40;99491.00;;;;16509695;28;20206;-49
2022/10/29 10:22:18;;;;;;;13.90;7.27;;;;;23.90;99476.00;;;;16525939;28;20241;-49
2022/10/29 10:30:23;;;;;;;15.97;6.60;;;;;24.20;99467.00;;;;16521427;28;20223;-48
2022/10/29 10:38:26;;;;;;;13.40;6.83;;;;;25.50;99464.00;;;;16494322;28;20322;-49
2022/10/29 10:46:31;;;;;;;11.57;6.07;;;;;25.40;99447.00;;;;16498181;28;20235;-49
2022/10/29 10:54:36;;;;;;;14.10;6.67;;;;;25.40;99435.00;;;;16489506;28;20233;-48
2022/10/29 11:02:47;;;;;;;9.03;7.00;;;;;26.10;99424.00;;;;16488528;28;20220;-49
2022/10/29 11:10:52;;;;;;;9.93;5.30;;;;;27.00;99428.00;;;;16513955;28;20224;-48
2022/10/29 11:19:00;;;;;;;11.83;5.50;;;;;26.50;99424.00;;;;16538331;28;20216;-49
2022/10/29 11:27:06;;;;;;;13.67;5.53;;;;;26.60;99413.00;;;;16531579;28;20220;-49
2022/10/29 11:35:13;;;;;;;11.53;5.80;;;;;27.40;99404.00;;;;16523984;22;20200;-48
2022/10/29 11:43:18;;;;;;;10.03;6.40;;;;;27.50;99410.00;;;;16573778;28;20220;-49
2022/10/29 11:51:29;;;;;;;9.20;5.77;;;;;27.80;99396.00;;;;16537780;28;20219;-48
2022/10/29 11:59:41;;;;;;;13.13;6.23;;;;;28.30;99373.00;;;;16571016;28;20296;-48
2022/10/29 12:07:58;;;;;;;12.53;6.13;;;;;28.50;99357.00;;;;16566892;28;20706;-48
2022/10/29 12:16:12;;;;;;;7.80;5.27;;;;;28.30;99354.00;;;;16564043;28;20215;-48
2022/10/29 12:24:25;;;;;;;9.47;5.63;;;;;28.20;99347.00;;;;16572640;28;20228;-49
2022/10/29 12:32:33;;;;;;;12.33;5.47;;;;;28.00;99342.00;;;;16567380;28;20227;-49
2022/10/29 12:40:39;;;;;;;9.90;6.17;;;;;27.90;99330.00;;;;16567558;28;20223;-49
2022/10/29 12:48:48;;;;;;;12.70;5.53;;;;;27.70;99335.00;;;;16574729;28;20223;-49
2022/10/29 12:56:52;;;;;;;13.10;5.70;;;;;28.50;99327.00;;;;16575915;28;20231;-48
2022/10/29 13:05:15;;;;;;;11.93;5.87;;;;;29.30;99314.00;;;;16571306;28;20231;-48
2022/10/29 13:13:43;;;;;;;12.30;6.50;;;;;29.20;99317.00;;;;16567126;28;20542;-49
2022/10/29 13:22:02;;;;;;;14.63;6.13;;;;;29.60;99300.00;;;;16564531;28;21467;-49
2022/10/29 13:30:18;;;;;;;11.50;6.07;;;;;29.00;99294.00;;;;16561536;28;20223;-49
2022/10/29 13:38:22;;;;;;;11.10;6.43;;;;;28.60;99289.00;;;;16568063;28;20842;-48
2022/10/29 13:46:46;;;;;;;10.43;5.90;;;;;28.20;99288.00;;;;16568084;28;20258;-48
2022/10/29 13:54:51;;;;;;;11.00;5.83;;;;;27.70;99275.00;;;;16556569;28;20708;-48
2022/10/29 14:02:57;;;;;;;10.13;5.80;;;;;27.10;99278.00;;;;16561141;28;20601;-47
2022/10/29 14:11:03;;;;;;;11.73;6.23;;;;;26.90;99279.00;;;;16576154;28;20223;-48
2022/10/29 14:19:18;;;;;;;16.57;7.43;;;;;27.40;99269.00;;;;16568999;28;20223;-48
2022/10/29 14:27:20;;;;;;;11.63;6.43;;;;;27.50;99265.00;;;;16560497;28;20227;-48
2022/10/29 14:35:24;;;;;;;12.23;6.40;;;;;27.60;99270.00;;;;16552918;28;20787;-47
2022/10/29 14:43:28;;;;;;;12.13;8.10;;;;;27.70;99270.00;;;;16551051;28;20226;-48
2022/10/29 14:51:36;;;;;;;12.17;7.40;;;;;27.30;99266.00;;;;16552669;28;20216;-48
2022/10/29 14:59:38;;;;;;;13.67;10.40;;;;;26.80;99266.00;;;;16550890;28;20696;-48
2022/10/29 15:07:42;;;;;;;12.63;8.20;;;;;25.90;99269.00;;;;16550602;28;20724;-47
2022/10/29 15:15:52;;;;;;;10.50;8.40;;;;;25.00;99275.00;;;;16559306;28;20222;-48
2022/10/29 15:23:59;;;;;;;15.10;9.57;;;;;23.90;99263.00;;;;16567155;28;20219;-48
2022/10/29 15:32:02;;;;;;;16.00;8.00;;;;;22.90;99271.00;;;;16556424;28;20622;-47
2022/10/29 15:40:12;;;;;;;12.67;8.03;;;;;21.90;99273.00;;;;16548111;28;20238;-48
2022/10/29 15:48:29;;;;;;;13.73;9.33;;;;;21.70;99270.00;;;;16573131;28;20850;-48
2022/10/29 15:56:33;;;;;;;14.63;8.43;;;;;21.60;99265.00;;;;16546644;28;20413;-47
2022/10/29 16:04:35;;;;;;;15.10;9.13;;;;;21.20;99272.00;;;;16534557;28;20220;-47
2022/10/29 16:12:39;;;;;;;12.57;10.30;;;;;21.00;99271.00;;;;16545834;28;20297;-47
2022/10/29 16:20:42;;;;;;;16.53;10.13;;;;;20.50;99266.00;;;;16544568;28;20221;-48
2022/10/29 16:28:45;;;;;;;14.90;10.63;;;;;20.40;99266.00;;;;16558755;28;20659;-47
2022/10/29 16:36:48;;;;;;;18.63;14.97;;;;;20.40;99269.00;;;;16574300;28;20600;-46
2022/10/29 16:44:51;;;;;;;28.73;19.97;;;;;20.80;99261.00;;;;16559792;28;20223;-48
2022/10/29 16:52:58;;;;;;;27.60;20.50;;;;;20.20;99257.00;;;;16560734;28;20633;-48
2022/10/29 17:01:06;;;;;;;17.63;14.87;;;;;19.70;99259.00;;;;16570212;28;20215;-47
2022/10/29 17:09:08;;;;;;;27.77;18.00;;;;;19.80;99265.00;;;;16563263;28;20231;-49
2022/10/29 17:17:12;;;;;;;19.27;15.97;;;;;19.80;99265.00;;;;16568683;28;20225;-48
2022/10/29 17:25:14;;;;;;;22.00;13.60;;;;;19.50;99264.00;;;;16560758;28;20238;-48
2022/10/29 17:33:18;;;;;;;18.43;11.80;;;;;19.30;99273.00;;;;16565241;28;20210;-48
2022/10/29 17:41:20;;;;;;;21.53;15.07;;;;;19.70;99270.00;;;;16571587;28;20226;-47
2022/10/29 17:49:25;;;;;;;17.43;13.13;;;;;19.30;99279.00;;;;16567012;28;20226;-47
2022/10/29 17:57:27;;;;;;;23.30;16.60;;;;;19.60;99283.00;;;;16552710;28;20216;-48
2022/10/29 18:05:32;;;;;;;17.00;11.80;;;;;19.20;99285.00;;;;16556164;28;20311;-48
2022/10/29 18:13:38;;;;;;;13.93;11.17;;;;;18.90;99283.00;;;;16562653;28;20204;-48
2022/10/29 18:21:42;;;;;;;18.33;12.07;;;;;18.70;99274.00;;;;16569212;28;20606;-49
2022/10/29 18:29:44;;;;;;;17.47;11.47;;;;;18.70;99283.00;;;;16568194;28;20591;-49
2022/10/29 18:37:48;;;;;;;14.40;8.43;;;;;18.90;99284.00;;;;16563448;28;20253;-48
2022/10/29 18:45:57;;;;;;;18.90;9.90;;;;;18.90;99285.00;;;;16573028;28;20276;-48
2022/10/29 18:54:01;;;;;;;12.90;10.10;;;;;18.80;99283.00;;;;16575126;28;20199;-48
2022/10/29 19:02:03;;;;;;;19.90;10.93;;;;;18.80;99288.00;;;;16574617;28;20336;-49
2022/10/29 19:10:09;;;;;;;25.73;11.57;;;;;19.00;99290.00;;;;16572144;28;20226;-48
2022/10/29 19:18:11;;;;;;;12.83;9.93;;;;;19.10;99277.00;;;;16576551;28;20219;-49
2022/10/29 19:26:17;;;;;;;12.33;9.40;;;;;18.80;99281.00;;;;16577102;28;20227;-49
2022/10/29 19:34:19;;;;;;;15.90;11.03;;;;;18.40;99278.00;;;;16574807;28;20227;-49
2022/10/29 19:42:23;;;;;;;13.67;9.30;;;;;18.60;99282.00;;;;16576315;28;20254;-49
2022/10/29 19:50:26;;;;;;;11.70;8.20;;;;;18.50;99280.00;;;;16562632;28;20229;-49
2022/10/29 19:58:30;;;;;;;15.30;11.07;;;;;18.10;99276.00;;;;16563674;28;20219;-48
2022/10/29 20:06:32;;;;;;;12.63;9.53;;;;;18.60;99281.00;;;;16578011;28;20265;-49
2022/10/29 20:14:36;;;;;;;15.67;9.63;;;;;17.90;99279.00;;;;16585204;28;20592;-49
2022/10/29 20:22:38;;;;;;;14.70;10.20;;;;;17.90;99287.00;;;;16584608;28;20227;-49
2022/10/29 20:30:42;;;;;;;12.60;9.23;;;;;17.70;99306.00;;;;16564804;28;20222;-49
2022/10/29 20:38:47;;;;;;;15.00;10.17;;;;;17.70;99289.00;;;;16576668;28;20321;-49
2022/10/29 20:46:51;;;;;;;18.87;11.70;;;;;17.70;99291.00;;;;16558386;28;20236;-49
2022/10/29 20:54:53;;;;;;;13.93;11.20;;;;;17.80;99293.00;;;;16569793;28;20195;-48
2022/10/29 21:02:57;;;;;;;14.07;9.67;;;;;17.60;99292.00;;;;16569959;28;20246;-48
2022/10/29 21:11:00;;;;;;;16.83;10.30;;;;;17.40;99304.00;;;;16571468;28;20302;-50
2022/10/29 21:19:06;;;;;;;22.13;10.30;;;;;17.60;99293.00;;;;16565892;28;20219;-49
2022/10/29 21:27:09;;;;;;;19.43;11.30;;;;;17.70;99310.00;;;;16542075;28;20234;-50
2022/10/29 21:35:13;;;;;;;18.57;13.20;;;;;18.00;99305.00;;;;16570366;28;20583;-51
2022/10/29 21:43:16;;;;;;;18.00;11.10;;;;;17.70;99299.00;;;;16565206;28;20702;-50
2022/10/29 21:51:19;;;;;;;15.83;9.63;;;;;17.60;99311.00;;;;16561725;28;20223;-50
2022/10/29 21:59:23;;;;;;;20.00;12.90;;;;;18.00;99307.00;;;;16565950;28;20223;-50
2022/10/29 22:07:26;;;;;;;15.07;13.30;;;;;18.10;99304.00;;;;16567833;28;20231;-50
2022/10/29 22:15:29;;;;;;;15.40;9.80;;;;;16.80;99312.00;;;;16540034;28;20222;-50
2022/10/29 22:23:33;;;;;;;13.63;8.60;;;;;16.70;99309.00;;;;16568587;28;20225;-51
2022/10/29 22:31:35;;;;;;;14.90;9.50;;;;;16.80;99299.00;;;;16560797;28;20298;-50
2022/10/29 22:39:39;;;;;;;19.43;11.13;;;;;16.80;99291.00;;;;16560189;28;20289;-51
2022/10/29 22:47:41;;;;;;;12.87;11.53;;;;;16.70;99297.00;;;;16554026;28;20741;-50
2022/10/29 22:55:52;;;;;;;16.23;9.50;;;;;16.90;99292.00;;;;16553624;28;20233;-49
2022/10/29 23:03:54;;;;;;;28.50;13.97;;;;;17.00;99283.00;;;;16563189;28;20224;-49
2022/10/29 23:11:58;;;;;;;23.43;12.60;;;;;16.70;99288.00;;;;16556692;28;20220;-50
2022/10/29 23:20:00;;;;;;;16.97;9.53;;;;;16.70;99300.00;;;;16563454;28;20227;-50
2022/10/29 23:28:04;;;;;;;11.77;8.83;;;;;16.70;99289.00;;;;16544940;28;20280;-50
2022/10/29 23:36:08;;;;;;;21.30;13.90;;;;;17.60;99285.00;;;;16558527;28;20228;-51
2022/10/29 23:44:12;;;;;;;16.70;12.80;;;;;17.70;99286.00;;;;16553464;28;20250;-50
2022/10/29 23:52:15;;;;;;;20.43;15.07;;;;;17.50;99276.00;;;;16575145;28;20354;-50
